SKRG

José María Córdova International Airport

Airport
ICAO code
SKRG
IATA Code
MDE
Summary
ICAO Region
CARSAM
ICAO Territory
Location

Rionegro, Antioquia

Serving
Medellín
Elevation
7027 ft
Coordinates
6° 10' 15" N , 75° 25' 39" W
KCC
Metar
Observation
SKRG 250200Z 25008KT 9999 VCSH BKN008 OCV080 16/14 Q1026 TEMPO FM0230 RA RMK VCSH/SE/S A3029
Station
Rionegro / J. M. Cordova
Date/Time
2022-09-25 02:00:00
Wind direction
250°
Wind speed
08 kts
Lowest cloud amount
broken clouds
Temperature
16°C
Dew point
14°C
Humidity
87%
QNH
1026 hPa
Weather condition
in vicinity: showers

José María Córdova International Airport is located in the city of Rionegro, 20 kilometres (12 mi) south-east of Medellín.

Climatology

Tropical rainforest climate (Köppen climate classification Af)

Runways

Designator Length Width Surface Rops
18/36 3500 45 ASP Yes/Yes

Airport map

Aerial View

SKYbrary Partners:

Safety knowledge contributed by: